createdAt,value
2018-10-16T00:02:22.932Z,80.70
2018-10-16T00:04:51.064Z,80.92
2018-10-16T00:07:19.234Z,82.05
2018-10-16T00:09:47.425Z,82.57
2018-10-16T00:12:15.934Z,82.40
2018-10-16T00:14:44.540Z,81.66
2018-10-16T00:17:13.221Z,82.31
2018-10-16T00:19:41.681Z,82.96
2018-10-16T00:22:10.213Z,82.47
2018-10-16T00:24:38.799Z,82.82
2018-10-16T00:27:07.244Z,81.83
2018-10-16T00:29:35.918Z,82.93
2018-10-16T00:32:04.538Z,82.95
2018-10-16T00:34:33.053Z,83.05
2018-10-16T00:37:01.762Z,83.18
2018-10-16T00:39:30.312Z,83.56
2018-10-16T00:41:58.696Z,85.25
2018-10-16T00:44:27.287Z,83.60
2018-10-16T00:46:55.865Z,84.66
2018-10-16T00:49:24.510Z,84.57
2018-10-16T00:51:53.034Z,84.54
2018-10-16T00:54:21.606Z,84.58
2018-10-16T00:56:50.232Z,84.69
2018-10-16T00:59:18.765Z,84.69
2018-10-16T01:01:47.352Z,85.34
2018-10-16T01:04:15.995Z,84.47
2018-10-16T01:06:44.344Z,84.29
2018-10-16T01:09:13.851Z,83.97
2018-10-16T01:11:42.350Z,84.73
2018-10-16T01:14:10.897Z,84.54
2018-10-16T01:16:39.449Z,83.58
2018-10-16T01:19:08.014Z,86.31
2018-10-16T01:21:36.443Z,85.35
2018-10-16T01:24:05.265Z,84.80
2018-10-16T01:26:33.701Z,84.48
2018-10-16T01:29:02.217Z,85.12
2018-10-16T01:31:30.791Z,86.04
2018-10-16T01:33:59.167Z,87.50
2018-10-16T01:36:27.803Z,87.13
2018-10-16T01:38:56.217Z,85.94
2018-10-16T01:43:58.965Z,86.61
2018-10-16T01:46:27.802Z,86.53
2018-10-16T01:48:56.145Z,86.66
2018-10-16T01:51:24.579Z,85.37
2018-10-16T01:53:53.186Z,86.33
2018-10-16T01:56:21.563Z,86.65
2018-10-16T01:58:50.120Z,87.38
2018-10-16T02:01:18.736Z,87.79
2018-10-16T02:03:47.008Z,86.87
2018-10-16T02:06:15.586Z,88.04
2018-10-16T02:08:44.215Z,89.16
2018-10-16T02:11:12.897Z,88.42
2018-10-16T02:13:41.465Z,87.61
2018-10-16T02:16:09.757Z,88.05
2018-10-16T02:18:38.226Z,89.44
2018-10-16T02:21:06.798Z,89.18
2018-10-16T02:23:35.468Z,87.95
2018-10-16T02:26:03.957Z,88.46
2018-10-16T02:28:32.570Z,88.49
2018-10-16T02:31:01.084Z,89.15
2018-10-16T02:33:29.728Z,88.79
2018-10-16T02:35:58.197Z,88.92
2018-10-16T02:38:26.628Z,88.95
2018-10-16T02:40:55.081Z,88.82
2018-10-16T02:43:23.612Z,88.39
2018-10-16T02:45:52.195Z,88.54
2018-10-16T02:48:20.828Z,88.79
2018-10-16T02:50:49.194Z,89.33
2018-10-16T02:53:17.630Z,89.31
2018-10-16T02:55:46.123Z,88.85
2018-10-16T02:58:14.518Z,88.24
2018-10-16T03:00:43.170Z,88.59
2018-10-16T03:03:11.756Z,90.22
2018-10-16T03:05:40.204Z,89.00
2018-10-16T03:08:08.835Z,89.16
2018-10-16T03:10:37.560Z,89.87
2018-10-16T03:13:06.132Z,89.91
2018-10-16T03:15:34.462Z,90.14
2018-10-16T03:18:03.088Z,90.70
2018-10-16T03:20:31.674Z,91.59
2018-10-16T03:23:00.273Z,91.10
2018-10-16T03:25:28.683Z,92.21
2018-10-16T03:27:57.050Z,91.73
2018-10-16T03:30:25.615Z,91.59
2018-10-16T03:32:54.289Z,90.08
2018-10-16T03:35:22.646Z,89.50
2018-10-16T03:37:51.220Z,89.78
2018-10-16T03:40:19.954Z,90.31
2018-10-16T03:42:48.662Z,92.86
2018-10-16T03:45:17.184Z,92.06
2018-10-16T03:47:45.886Z,93.66
2018-10-16T03:50:14.589Z,89.40
2018-10-16T03:52:43.408Z,90.15
2018-10-16T03:55:11.875Z,91.66
2018-10-16T03:57:40.559Z,91.29
2018-10-16T04:00:09.561Z,91.12
2018-10-16T04:02:38.289Z,91.59
2018-10-16T04:05:06.878Z,90.57
2018-10-16T04:07:35.481Z,90.44
2018-10-16T04:10:04.140Z,91.20
2018-10-16T04:12:32.773Z,91.64
2018-10-16T04:15:01.479Z,93.95
2018-10-16T04:17:30.039Z,94.90
2018-10-16T04:19:58.642Z,92.22
2018-10-16T04:22:27.294Z,93.35
2018-10-16T04:24:55.727Z,91.91
2018-10-16T04:27:24.231Z,91.51
2018-10-16T04:29:52.883Z,91.45
2018-10-16T04:32:21.437Z,92.15
2018-10-16T04:34:49.982Z,92.06
2018-10-16T04:37:18.513Z,93.20
2018-10-16T04:39:47.323Z,94.20
2018-10-16T04:42:15.813Z,95.51
2018-10-16T04:44:44.335Z,94.43
2018-10-16T04:47:13.154Z,92.50
2018-10-16T04:49:41.622Z,92.95
2018-10-16T04:52:10.459Z,93.53
2018-10-16T04:54:39.096Z,93.15
2018-10-16T04:57:07.717Z,92.78
2018-10-16T04:59:36.405Z,91.96
2018-10-16T05:02:05.191Z,91.82
2018-10-16T05:04:33.813Z,91.19
2018-10-16T05:07:02.414Z,93.12
2018-10-16T05:09:30.861Z,92.67
2018-10-16T05:11:59.450Z,91.43
2018-10-16T05:14:28.067Z,90.56
2018-10-16T05:16:56.774Z,90.78
2018-10-16T05:19:25.617Z,91.66
2018-10-16T05:21:54.274Z,91.18
2018-10-16T05:24:22.851Z,90.94
2018-10-16T05:26:51.644Z,91.00
2018-10-16T05:29:20.653Z,91.42
2018-10-16T05:31:49.310Z,90.66
2018-10-16T05:34:19.204Z,89.56
2018-10-16T05:36:47.944Z,90.50
2018-10-16T05:39:16.663Z,88.04
2018-10-16T05:41:45.244Z,86.15
2018-10-16T05:44:14.085Z,85.19
2018-10-16T05:46:42.722Z,82.82
2018-10-16T05:49:11.554Z,81.46
2018-10-16T05:51:40.338Z,81.23
2018-10-16T05:54:09.053Z,80.98
2018-10-16T05:56:38.070Z,79.50
2018-10-16T05:59:07.122Z,79.83
2018-10-16T06:01:35.918Z,79.79
2018-10-16T06:04:04.799Z,79.94
2018-10-16T06:06:33.444Z,79.82
2018-10-16T06:09:08.936Z,81.16
2018-10-16T06:11:37.567Z,80.97
2018-10-16T06:14:06.041Z,80.76
2018-10-16T06:16:34.892Z,80.83
2018-10-16T06:19:03.968Z,81.08
2018-10-16T06:21:32.583Z,80.47
2018-10-16T06:24:01.106Z,77.90
2018-10-16T06:26:29.762Z,78.28
2018-10-16T06:28:58.508Z,78.33
2018-10-16T06:31:27.056Z,78.91
2018-10-16T06:33:56.186Z,79.10
2018-10-16T06:36:24.722Z,77.05
2018-10-16T06:38:53.324Z,77.44
2018-10-16T06:41:21.930Z,75.59
2018-10-16T06:43:50.527Z,74.43
2018-10-16T06:46:19.332Z,75.08
2018-10-16T06:48:48.329Z,76.51
2018-10-16T06:51:16.709Z,74.10
2018-10-16T06:53:45.588Z,73.03
2018-10-16T06:56:14.123Z,74.39
2018-10-16T06:58:42.827Z,72.55
2018-10-16T07:01:11.542Z,70.42
2018-10-16T07:03:40.234Z,71.26
2018-10-16T07:06:08.713Z,71.38
2018-10-16T07:08:37.485Z,71.11
2018-10-16T07:11:06.149Z,69.30
2018-10-16T07:13:35.238Z,68.06
2018-10-16T07:16:03.958Z,68.15
2018-10-16T07:18:32.502Z,68.48
2018-10-16T07:21:01.193Z,67.80
2018-10-16T07:23:29.465Z,67.34
2018-10-16T07:25:57.751Z,65.69
2018-10-16T07:28:26.137Z,65.11
2018-10-16T07:30:54.353Z,63.07
2018-10-16T07:33:22.444Z,62.65
2018-10-16T07:35:50.639Z,61.41
2018-10-16T07:38:18.916Z,61.24
2018-10-16T07:40:47.028Z,61.79
2018-10-16T07:43:15.205Z,59.59
2018-10-16T07:45:43.615Z,59.85
2018-10-16T07:48:11.748Z,57.90
2018-10-16T07:50:39.906Z,57.80
2018-10-16T07:53:08.169Z,56.86
2018-10-16T07:55:36.454Z,57.06
2018-10-16T07:58:04.870Z,56.42
2018-10-16T08:00:32.984Z,56.15
2018-10-16T08:03:01.321Z,55.06
2018-10-16T08:05:29.593Z,56.21
2018-10-16T08:07:57.989Z,56.30
2018-10-16T08:10:26.261Z,55.59
2018-10-16T08:12:54.461Z,54.77
2018-10-16T08:15:22.671Z,53.75
2018-10-16T08:17:50.883Z,53.63
2018-10-16T08:20:19.216Z,52.53
2018-10-16T08:22:47.555Z,52.64
2018-10-16T08:25:15.855Z,51.83
2018-10-16T08:27:44.062Z,52.32
2018-10-16T08:30:12.587Z,52.56
2018-10-16T08:32:40.950Z,51.63
2018-10-16T08:35:09.221Z,51.12
2018-10-16T08:38:59.015Z,51.94
2018-10-16T08:42:38.257Z,50.07
2018-10-16T08:45:17.718Z,50.33
2018-10-16T08:48:58.141Z,49.09
2018-10-16T08:51:44.107Z,49.60
2018-10-16T08:54:13.228Z,51.22
2018-10-16T08:56:41.513Z,49.69
2018-10-16T08:59:09.938Z,49.35
2018-10-16T09:01:38.311Z,50.00
2018-10-16T09:04:06.876Z,48.24
2018-10-16T09:06:35.448Z,47.92
2018-10-16T09:09:07.285Z,48.17
2018-10-16T09:11:36.129Z,47.84
2018-10-16T09:14:04.831Z,46.37
2018-10-16T09:16:33.367Z,46.50
2018-10-16T09:19:01.812Z,46.98
2018-10-16T09:21:30.324Z,46.09
2018-10-16T09:23:58.730Z,46.19
2018-10-16T09:26:27.603Z,44.97
2018-10-16T09:28:56.143Z,46.69
2018-10-16T09:31:24.596Z,44.68
2018-10-16T09:33:53.159Z,43.93
2018-10-16T09:36:21.561Z,43.89
2018-10-16T09:38:50.116Z,42.92
2018-10-16T09:41:19.281Z,42.81
2018-10-16T09:43:47.814Z,43.40
2018-10-16T09:46:16.395Z,42.02
2018-10-16T09:48:44.758Z,40.02
2018-10-16T09:51:13.055Z,40.17
2018-10-16T09:53:41.936Z,40.69
2018-10-16T09:56:11.617Z,39.82
2018-10-16T09:58:41.470Z,41.13
2018-10-16T10:01:15.543Z,40.36
2018-10-16T10:03:44.626Z,40.73
2018-10-16T10:06:12.998Z,40.08
2018-10-16T10:08:41.505Z,38.68
2018-10-16T10:11:10.227Z,36.70
2018-10-16T10:13:38.827Z,36.89
2018-10-16T10:16:07.930Z,37.38
2018-10-16T10:18:36.447Z,38.38
2018-10-16T10:21:04.895Z,37.18
2018-10-16T10:23:33.178Z,36.96
2018-10-16T10:26:01.629Z,35.70
2018-10-16T10:28:30.559Z,35.61
2018-10-16T10:30:59.280Z,36.14
2018-10-16T10:33:27.713Z,35.78
2018-10-16T10:35:56.024Z,33.86
2018-10-16T10:38:24.353Z,34.04
2018-10-16T10:40:52.637Z,34.63
2018-10-16T10:43:21.094Z,34.51
2018-10-16T10:45:49.521Z,33.96
2018-10-16T10:48:18.048Z,34.62
2018-10-16T10:50:46.419Z,33.77
2018-10-16T10:53:14.677Z,33.21
2018-10-16T10:55:42.995Z,33.75
2018-10-16T10:58:11.491Z,33.12
2018-10-16T11:00:39.777Z,33.03
2018-10-16T11:03:08.196Z,33.40
2018-10-16T11:05:36.451Z,34.14
2018-10-16T11:08:05.095Z,34.02
2018-10-16T11:10:33.415Z,33.29
2018-10-16T11:13:01.810Z,32.56
2018-10-16T11:15:30.228Z,33.24
2018-10-16T11:17:58.644Z,32.12
2018-10-16T11:20:27.116Z,31.51
2018-10-16T11:22:55.773Z,31.52
2018-10-16T11:25:24.175Z,30.22
2018-10-16T11:27:52.627Z,30.37
2018-10-16T11:30:21.072Z,32.38
2018-10-16T11:32:49.325Z,31.61
2018-10-16T11:35:17.785Z,31.26
2018-10-16T11:37:46.187Z,31.61
2018-10-16T11:40:14.479Z,32.70
2018-10-16T11:42:43.136Z,30.83
2018-10-16T11:45:11.404Z,31.49
2018-10-16T11:47:39.642Z,31.04
2018-10-16T11:50:11.395Z,31.57
2018-10-16T11:52:41.939Z,31.41
2018-10-16T11:55:10.899Z,31.35
2018-10-16T11:57:39.590Z,32.94
2018-10-16T12:00:11.208Z,32.36
2018-10-16T12:02:39.613Z,30.31
2018-10-16T12:05:07.964Z,30.79
2018-10-16T12:07:36.117Z,30.54
2018-10-16T12:10:05.124Z,30.40
2018-10-16T12:12:33.405Z,29.87
2018-10-16T12:15:01.654Z,30.09
2018-10-16T12:17:36.197Z,30.22
2018-10-16T12:20:22.275Z,29.87
2018-10-16T12:22:50.532Z,29.83
2018-10-16T12:25:18.825Z,29.72
2018-10-16T12:27:47.047Z,29.80
2018-10-16T12:30:15.283Z,30.07
2018-10-16T12:32:43.414Z,29.73
2018-10-16T12:35:11.576Z,30.42
2018-10-16T12:37:39.746Z,29.59
2018-10-16T12:40:08.232Z,28.76
2018-10-16T12:42:36.588Z,29.10
2018-10-16T12:45:06.018Z,29.71
2018-10-16T12:47:34.186Z,29.72
2018-10-16T12:50:02.332Z,29.50
2018-10-16T12:52:30.620Z,29.59
2018-10-16T12:54:58.983Z,28.76
2018-10-16T12:57:27.254Z,28.64
2018-10-16T12:59:55.373Z,28.78
2018-10-16T13:02:23.489Z,30.62
2018-10-16T13:04:51.745Z,29.73
2018-10-16T13:07:25.522Z,29.08
2018-10-16T13:09:53.603Z,28.73
2018-10-16T13:12:21.690Z,29.00
2018-10-16T13:14:49.965Z,29.13
2018-10-16T13:17:18.242Z,29.10
2018-10-16T13:19:46.518Z,28.20
2018-10-16T13:22:14.854Z,28.76
2018-10-16T13:24:43.129Z,29.10
2018-10-16T13:27:11.478Z,29.29
2018-10-16T13:29:39.903Z,28.58
2018-10-16T13:32:08.405Z,28.74
2018-10-16T13:34:36.737Z,30.11
2018-10-16T13:37:04.861Z,29.67
2018-10-16T13:39:33.235Z,29.54
2018-10-16T13:42:01.604Z,30.59
2018-10-16T13:44:29.904Z,30.73
2018-10-16T13:46:58.110Z,28.93
2018-10-16T13:49:26.430Z,29.54
2018-10-16T13:51:54.827Z,29.64
2018-10-16T13:54:23.699Z,29.82
2018-10-16T13:56:52.677Z,30.79
2018-10-16T13:59:20.901Z,30.78
2018-10-16T14:01:49.375Z,30.70
2018-10-16T14:04:17.610Z,29.96
2018-10-16T14:06:45.757Z,32.47
2018-10-16T14:09:13.972Z,33.33
2018-10-16T14:11:42.106Z,34.26
2018-10-16T14:14:10.553Z,35.10
2018-10-16T14:16:38.576Z,34.67
2018-10-16T14:19:06.758Z,33.56
2018-10-16T14:21:34.900Z,35.83
2018-10-16T14:24:03.188Z,30.70
2018-10-16T14:26:31.427Z,31.01
2018-10-16T14:28:59.793Z,29.99
2018-10-16T14:31:28.022Z,31.59
2018-10-16T14:33:56.504Z,32.25
2018-10-16T14:36:24.574Z,32.25
2018-10-16T14:38:53.275Z,35.74
2018-10-16T14:41:21.398Z,36.35
2018-10-16T14:43:49.632Z,36.69
2018-10-16T14:46:17.975Z,38.41
2018-10-16T14:48:46.190Z,35.31
2018-10-16T14:51:14.552Z,37.57
2018-10-16T14:53:42.744Z,38.96
2018-10-16T14:56:11.440Z,39.55
2018-10-16T14:58:39.590Z,39.58
2018-10-16T15:01:07.832Z,39.57
2018-10-16T15:03:35.914Z,39.85
2018-10-16T15:06:04.101Z,39.13
2018-10-16T15:08:32.197Z,38.94
2018-10-16T15:11:01.272Z,41.65
2018-10-16T15:13:29.582Z,42.58
2018-10-16T15:15:58.027Z,44.03
2018-10-16T15:18:26.184Z,44.11
2018-10-16T15:20:54.358Z,44.25
2018-10-16T15:23:22.435Z,45.59
2018-10-16T15:25:50.553Z,44.80
2018-10-16T15:28:18.616Z,44.83
2018-10-16T15:30:46.931Z,44.56
2018-10-16T15:33:15.100Z,45.69
2018-10-16T15:35:43.277Z,46.75
2018-10-16T15:38:11.499Z,47.60
2018-10-16T15:40:39.613Z,47.00
2018-10-16T15:43:07.715Z,47.78
2018-10-16T15:45:35.866Z,45.05
2018-10-16T15:48:03.954Z,45.40
2018-10-16T15:50:31.989Z,46.00
2018-10-16T15:53:00.068Z,46.61
2018-10-16T15:55:28.281Z,46.97
2018-10-16T15:57:56.502Z,46.20
2018-10-16T16:00:24.630Z,47.38
2018-10-16T16:02:52.662Z,48.75
2018-10-16T16:05:20.631Z,46.57
2018-10-16T16:07:48.656Z,47.94
2018-10-16T16:10:16.817Z,49.45
2018-10-16T16:12:44.830Z,48.69
2018-10-16T16:15:13.590Z,48.42
2018-10-16T16:17:42.197Z,49.22
2018-10-16T16:20:11.755Z,49.56
2018-10-16T16:22:39.795Z,48.90
2018-10-16T16:25:09.539Z,48.68
2018-10-16T16:27:37.998Z,49.51
2018-10-16T16:30:08.218Z,49.60
2018-10-16T16:32:36.514Z,47.29
2018-10-16T16:35:06.564Z,49.32
2018-10-16T16:37:34.928Z,47.79
2018-10-16T16:40:03.310Z,48.33
2018-10-16T16:42:31.400Z,46.90
2018-10-16T16:44:59.626Z,48.09
2018-10-16T16:47:27.893Z,46.98
2018-10-16T16:49:56.207Z,46.81
2018-10-16T16:52:24.512Z,47.46
2018-10-16T16:54:53.010Z,48.01
2018-10-16T16:57:21.367Z,49.28
2018-10-16T16:59:49.695Z,50.91
2018-10-16T17:02:17.852Z,52.89
2018-10-16T17:04:46.167Z,52.02
2018-10-16T17:07:14.397Z,53.14
2018-10-16T17:09:42.598Z,52.42
2018-10-16T17:12:10.735Z,53.49
2018-10-16T17:14:39.020Z,54.30
2018-10-16T17:17:07.249Z,55.05
2018-10-16T17:19:35.416Z,55.35
2018-10-16T17:22:04.160Z,54.33
2018-10-16T17:24:33.005Z,54.61
2018-10-16T17:27:02.247Z,54.96
2018-10-16T17:29:30.501Z,55.96
2018-10-16T17:31:58.644Z,56.54
2018-10-16T17:34:26.957Z,56.04
2018-10-16T17:36:55.425Z,56.50
2018-10-16T17:39:23.596Z,57.12
2018-10-16T17:41:52.002Z,57.58
2018-10-16T17:44:20.243Z,57.36
2018-10-16T17:46:48.474Z,55.17
2018-10-16T17:49:16.741Z,54.92
2018-10-16T17:51:44.994Z,56.01
2018-10-16T17:54:13.217Z,56.02
2018-10-16T17:56:41.727Z,56.69
2018-10-16T17:59:10.146Z,56.87
2018-10-16T18:01:38.270Z,56.45
2018-10-16T18:04:06.447Z,56.31
2018-10-16T18:06:34.634Z,56.67
2018-10-16T18:09:02.908Z,57.01
2018-10-16T18:11:31.088Z,57.47
2018-10-16T18:13:59.266Z,57.56
2018-10-16T18:16:27.591Z,57.52
2018-10-16T18:18:55.788Z,57.49
2018-10-16T18:21:23.942Z,57.81
2018-10-16T18:23:52.257Z,58.04
2018-10-16T18:26:20.693Z,58.60
2018-10-16T18:28:50.064Z,58.39
2018-10-16T18:31:18.383Z,58.39
2018-10-16T18:33:46.945Z,59.28
2018-10-16T18:36:15.298Z,58.28
2018-10-16T18:38:43.608Z,58.59
2018-10-16T18:41:13.073Z,58.72
2018-10-16T18:43:41.394Z,58.67
2018-10-16T18:46:09.776Z,58.88
2018-10-16T18:48:38.184Z,58.95
2018-10-16T18:51:06.880Z,59.27
2018-10-16T18:53:35.320Z,59.25
2018-10-16T18:56:03.710Z,59.52
2018-10-16T18:58:32.430Z,59.35
2018-10-16T19:01:00.725Z,60.12
2018-10-16T19:03:28.952Z,60.37
2018-10-16T19:05:57.355Z,60.94
2018-10-16T19:08:25.573Z,60.88
2018-10-16T19:10:53.857Z,61.39
2018-10-16T19:13:22.107Z,61.69
2018-10-16T19:15:50.569Z,61.59
2018-10-16T19:18:19.194Z,61.67
2018-10-16T19:20:47.373Z,62.65
2018-10-16T19:23:15.553Z,62.69
2018-10-16T19:25:43.668Z,62.91
2018-10-16T19:28:11.897Z,62.78
2018-10-16T19:30:41.056Z,62.93
2018-10-16T19:33:09.701Z,62.64
2018-10-16T19:35:37.922Z,63.42
2018-10-16T19:38:06.467Z,63.14
2018-10-16T19:40:34.660Z,63.71
2018-10-16T19:43:03.356Z,63.49
2018-10-16T19:45:31.651Z,63.87
2018-10-16T19:47:59.856Z,63.49
2018-10-16T19:50:28.147Z,63.80
2018-10-16T19:52:56.404Z,64.40
2018-10-16T19:55:24.603Z,65.28
2018-10-16T19:57:53.036Z,64.96
2018-10-16T20:00:21.397Z,64.07
2018-10-16T20:02:49.557Z,64.93
2018-10-16T20:05:17.888Z,65.14
2018-10-16T20:07:46.112Z,65.19
2018-10-16T20:10:14.309Z,65.34
2018-10-16T20:12:42.467Z,65.38
2018-10-16T20:15:11.880Z,65.58
2018-10-16T20:17:40.235Z,66.20
2018-10-16T20:20:09.673Z,65.29
2018-10-16T20:22:38.102Z,64.93
2018-10-16T20:25:07.581Z,64.62
2018-10-16T20:27:36.183Z,65.39
2018-10-16T20:30:05.468Z,65.23
2018-10-16T20:32:33.751Z,64.66
2018-10-16T20:35:01.945Z,66.15
2018-10-16T20:37:30.008Z,66.06
2018-10-16T20:39:58.155Z,65.50
2018-10-16T20:42:26.361Z,65.74
2018-10-16T20:44:54.510Z,66.68
2018-10-16T20:47:22.755Z,66.39
2018-10-16T20:49:50.986Z,67.33
2018-10-16T20:52:19.468Z,67.23
2018-10-16T20:54:47.932Z,67.23
2018-10-16T20:57:16.581Z,67.14
2018-10-16T20:59:45.588Z,67.87
2018-10-16T21:02:13.988Z,68.31
2018-10-16T21:04:42.373Z,69.85
2018-10-16T21:07:10.549Z,68.56
2018-10-16T21:09:38.736Z,68.47
2018-10-16T21:12:06.888Z,69.11
2018-10-16T21:14:35.024Z,68.26
2018-10-16T21:17:03.282Z,68.94
2018-10-16T21:19:31.555Z,69.29
2018-10-16T21:21:59.780Z,68.75
2018-10-16T21:24:27.913Z,68.99
2018-10-16T21:27:06.778Z,68.78
2018-10-16T21:29:35.166Z,69.23
2018-10-16T21:32:03.692Z,70.09
2018-10-16T21:34:31.814Z,70.15
2018-10-16T21:37:00.011Z,69.57
2018-10-16T21:39:28.054Z,69.27
2018-10-16T21:41:56.144Z,68.98
2018-10-16T21:44:24.284Z,70.87
2018-10-16T21:46:53.022Z,69.99
2018-10-16T21:49:21.803Z,69.94
2018-10-16T21:51:50.044Z,70.74
2018-10-16T21:54:18.317Z,71.41
2018-10-16T21:56:46.502Z,71.17
2018-10-16T21:59:14.731Z,71.14
2018-10-16T22:01:48.304Z,71.40
2018-10-16T22:04:16.363Z,71.31
2018-10-16T22:06:44.704Z,70.64
2018-10-16T22:09:14.204Z,71.71
2018-10-16T22:11:42.567Z,71.80
2018-10-16T22:14:11.183Z,72.30
2018-10-16T22:16:39.259Z,71.48
2018-10-16T22:19:07.740Z,71.53
2018-10-16T22:21:35.861Z,72.46
2018-10-16T22:24:04.020Z,72.46
2018-10-16T22:26:32.480Z,72.29
2018-10-16T22:29:01.111Z,72.26
2018-10-16T22:31:29.215Z,73.21
2018-10-16T22:33:57.524Z,73.65
2018-10-16T22:36:25.755Z,73.30
2018-10-16T22:38:54.065Z,73.03
2018-10-16T22:41:22.241Z,73.58
2018-10-16T22:43:50.536Z,74.16
2018-10-16T22:46:18.678Z,73.51
2018-10-16T22:48:46.801Z,73.33
2018-10-16T22:51:14.910Z,73.26
2018-10-16T22:53:43.127Z,74.30
2018-10-16T22:56:11.261Z,74.13
2018-10-16T22:58:39.407Z,73.29
2018-10-16T23:01:07.499Z,74.00
2018-10-16T23:03:35.722Z,74.67
2018-10-16T23:06:04.610Z,73.93
2018-10-16T23:08:32.755Z,75.12
2018-10-16T23:11:00.866Z,74.81
2018-10-16T23:13:28.950Z,75.20
2018-10-16T23:15:57.046Z,75.68
2018-10-16T23:18:25.142Z,77.49
2018-10-16T23:20:53.180Z,76.56
2018-10-16T23:23:21.286Z,77.36
2018-10-16T23:25:49.491Z,76.58
2018-10-16T23:28:17.710Z,75.90
2018-10-16T23:30:45.802Z,77.66
2018-10-16T23:33:13.979Z,76.68
2018-10-16T23:35:42.069Z,76.99
2018-10-16T23:38:10.215Z,76.73
2018-10-16T23:40:38.264Z,77.54
2018-10-16T23:43:06.472Z,77.87
2018-10-16T23:45:34.607Z,77.83
2018-10-16T23:48:02.763Z,76.65
2018-10-16T23:50:30.933Z,77.08
2018-10-16T23:52:59.071Z,77.61
2018-10-16T23:55:27.205Z,78.49
2018-10-16T23:57:55.326Z,79.19
